Time;durP1;ratioP1;P1;durP2;ratioP2;P2;SDS_P1;SDS_P2;PMS_P1;PMS_P2;Temp;Humidity;BMP_temperature;BMP_pressure;BME280_temperature;BME280_humidity;BME280_pressure;Samples;Min_cycle;Max_cycle;Signal;HPM_P1;HPM_P2
2022/06/25 00:01:51;;;;;;;7.60;2.40;;;;;;;19.89;100.00;98542.09;4427769;32;20065;-69
2022/06/25 00:07:03;;;;;;;2.78;2.50;;;;;;;19.62;100.00;98502.25;4407585;32;20449;-69
2022/06/25 00:09:29;;;;;;;2.20;2.00;;;;;;;19.88;100.00;98549.50;4415939;32;20054;-68
2022/06/25 00:14:39;;;;;;;2.80;2.15;;;;;;;19.62;100.00;98502.25;4416708;32;20038;-68
2022/06/25 00:17:05;;;;;;;4.32;2.10;;;;;;;19.85;100.00;98538.37;4416885;32;20367;-68
2022/06/25 00:19:31;;;;;;;2.60;2.40;;;;;;;19.77;100.00;98532.63;4416749;32;20061;-68
2022/06/25 00:21:57;;;;;;;2.20;2.10;;;;;;;19.56;100.00;98505.16;4414603;32;20083;-70
2022/06/25 00:24:23;;;;;;;2.42;2.22;;;;;;;19.81;100.00;98542.91;4416727;32;20050;-69
2022/06/25 00:26:49;;;;;;;5.20;2.20;;;;;;;19.60;100.00;98516.22;4421171;32;20042;-69
2022/06/25 00:29:15;;;;;;;2.90;2.37;;;;;;;19.52;100.00;98509.63;4417256;32;20088;-69
2022/06/25 00:31:42;;;;;;;2.92;2.65;;;;;;;19.67;100.00;98540.31;4416465;32;20451;-69
2022/06/25 00:34:08;;;;;;;6.78;2.47;;;;;;;19.59;100.00;98537.28;4415692;32;20035;-71
2022/06/25 00:36:34;;;;;;;8.73;2.30;;;;;;;19.52;100.00;98536.94;4419983;32;20069;-69
2022/06/25 00:39:00;;;;;;;4.45;2.50;;;;;;;19.54;100.00;98540.13;4415282;32;20042;-69
2022/06/25 00:41:25;;;;;;;5.97;3.05;;;;;;;19.22;100.00;98500.47;4416097;32;20077;-69
2022/06/25 00:43:51;;;;;;;2.83;2.62;;;;;;;19.47;100.00;98539.81;4416008;32;20444;-69
2022/06/25 00:46:17;;;;;;;7.32;2.15;;;;;;;19.22;100.00;98501.25;4413346;32;20042;-69
2022/06/25 00:48:43;;;;;;;2.28;2.05;;;;;;;19.33;100.00;98528.25;4416689;32;20054;-69
2022/06/25 00:51:12;;;;;;;3.53;2.67;;;;;;;19.10;100.00;98492.09;4402319;32;20058;-70
2022/06/25 00:53:46;;;;;;;4.85;2.40;;;;;;;19.28;100.00;98533.88;4416298;32;20046;-70
2022/06/25 00:56:13;;;;;;;2.90;2.60;;;;;;;19.26;100.00;98526.00;4400283;32;20050;-70
2022/06/25 00:58:42;;;;;;;4.43;2.30;;;;;;;19.27;100.00;98524.06;4415901;32;20085;-69
2022/06/25 01:01:09;;;;;;;13.32;2.33;;;;;;;19.30;100.00;98526.97;4416364;32;20102;-69
2022/06/25 01:03:38;;;;;;;2.97;2.22;;;;;;;19.19;100.00;98522.94;4416373;32;20471;-69
2022/06/25 01:06:06;;;;;;;8.90;2.30;;;;;;;19.27;100.00;98524.06;4429769;32;20046;-71
2022/06/25 01:08:33;;;;;;;7.20;2.47;;;;;;;19.17;100.00;98531.44;4429941;32;20441;-70
2022/06/25 01:11:00;;;;;;;5.05;2.03;;;;;;;18.90;100.00;98493.53;4431499;32;20050;-70
2022/06/25 01:13:27;;;;;;;4.35;2.78;;;;;;;19.10;100.00;98524.84;4416703;32;20174;-70
2022/06/25 01:15:53;;;;;;;4.22;2.15;;;;;;;19.09;100.00;98524.03;4417512;32;20102;-69
2022/06/25 01:18:19;;;;;;;4.50;2.70;;;;;;;18.98;100.00;98533.66;4427025;32;20046;-69
2022/06/25 01:20:46;;;;;;;2.45;2.25;;;;;;;18.99;100.00;98529.81;4429753;32;20303;-69
2022/06/25 01:23:13;;;;;;;5.82;2.25;;;;;;;18.75;100.00;98490.09;4417146;32;20038;-69
2022/06/25 01:25:40;;;;;;;7.40;2.62;;;;;;;18.97;100.00;98521.13;4415650;32;20053;-70
2022/06/25 01:28:12;;;;;;;2.75;2.55;;;;;;;18.74;100.00;98479.50;4419795;32;20094;-69
2022/06/25 01:30:37;;;;;;;3.22;2.12;;;;;;;18.91;100.00;98516.94;4431250;32;20085;-70
2022/06/25 01:33:08;;;;;;;4.32;2.60;;;;;;;18.92;100.00;98524.00;4430872;32;20039;-69
2022/06/25 01:35:34;;;;;;;3.33;3.03;;;;;;;18.99;100.00;98518.91;4431288;32;20082;-69
2022/06/25 01:38:00;;;;;;;4.00;2.87;;;;;;;18.85;100.00;98521.75;4423092;32;20094;-71
2022/06/25 01:40:31;;;;;;;3.62;3.30;;;;;;;18.48;100.00;98450.25;4430862;32;20042;-69
2022/06/25 01:42:58;;;;;;;2.50;2.33;;;;;;;18.81;100.00;98513.38;4428846;32;20026;-69
2022/06/25 01:45:25;;;;;;;5.25;2.83;;;;;;;18.52;100.00;98473.84;4421605;32;20057;-69
2022/06/25 01:47:52;;;;;;;7.93;3.08;;;;;;;18.75;100.00;98511.09;4420822;32;20045;-69
2022/06/25 01:50:18;;;;;;;3.15;2.70;;;;;;;18.44;100.00;98480.03;4414884;32;20125;-69
2022/06/25 01:52:45;;;;;;;3.70;2.45;;;;;;;18.47;100.00;98514.84;4430900;32;20054;-69
2022/06/25 01:55:12;;;;;;;2.70;2.50;;;;;;;18.43;100.00;98505.69;4431033;32;20083;-69
2022/06/25 01:57:38;;;;;;;5.10;2.53;;;;;;;18.07;100.00;98463.06;4427049;32;20053;-69
2022/06/25 02:00:07;;;;;;;2.45;2.25;;;;;;;18.15;100.00;98497.69;4427955;32;20080;-69
2022/06/25 02:02:41;;;;;;;2.67;2.37;;;;;;;17.90;100.00;98463.78;4414621;32;20051;-69
2022/06/25 02:05:09;;;;;;;2.62;2.42;;;;;;;17.84;100.00;98477.78;4423086;32;20386;-70
2022/06/25 02:07:34;;;;;;;6.37;2.72;;;;;;;18.07;100.00;98509.34;4431033;32;20097;-69
2022/06/25 02:10:00;;;;;;;2.62;2.30;;;;;;;18.02;100.00;98506.78;4431178;32;20348;-69
2022/06/25 02:12:27;;;;;;;2.92;2.62;;;;;;;17.85;100.00;98514.81;4414579;32;20057;-71
2022/06/25 02:14:52;;;;;;;4.15;2.90;;;;;;;17.93;100.00;98514.09;4430795;32;20841;-69
2022/06/25 02:17:18;;;;;;;3.97;2.33;;;;;;;17.57;100.00;98463.22;4421709;32;20042;-69
2022/06/25 02:19:44;;;;;;;5.05;2.40;;;;;;;17.86;100.00;98516.41;4401673;32;20420;-69
2022/06/25 02:22:14;;;;;;;2.47;2.28;;;;;;;17.82;100.00;98509.97;4415487;32;20113;-69
2022/06/25 02:24:44;;;;;;;2.80;2.60;;;;;;;17.59;100.00;98474.59;4413477;32;20042;-69
2022/06/25 02:27:10;;;;;;;2.87;2.67;;;;;;;17.86;100.00;98510.97;4421098;32;20070;-69
2022/06/25 02:29:36;;;;;;;6.10;3.00;;;;;;;17.76;100.00;98507.37;4415132;32;20424;-70
2022/06/25 02:32:04;;;;;;;4.62;2.80;;;;;;;17.86;100.00;98517.22;4424143;32;20412;-68
2022/06/25 02:34:29;;;;;;;10.52;2.47;;;;;;;17.56;100.00;98464.31;4423015;32;20038;-68
2022/06/25 02:36:56;;;;;;;2.72;2.53;;;;;;;17.53;100.00;98471.19;4413580;32;20070;-68
2022/06/25 02:39:22;;;;;;;18.30;3.15;;;;;;;17.55;100.00;98473.59;4415219;32;20042;-68
2022/06/25 02:41:48;;;;;;;3.22;2.60;;;;;;;17.79;100.00;98523.09;4422248;32;20070;-69
2022/06/25 02:44:14;;;;;;;3.70;2.25;;;;;;;17.88;100.00;98522.37;4431456;32;20060;-69
2022/06/25 02:46:41;;;;;;;7.68;2.28;;;;;;;17.82;100.00;98515.41;4432140;32;20171;-69
2022/06/25 02:49:07;;;;;;;2.83;2.40;;;;;;;17.58;100.00;98481.16;4429945;32;20169;-68
2022/06/25 02:51:33;;;;;;;2.83;2.62;;;;;;;17.64;100.00;98487.28;4425315;32;20133;-68
2022/06/25 02:53:59;;;;;;;10.95;2.65;;;;;;;17.62;100.00;98485.66;4416237;32;20042;-69
2022/06/25 02:59:11;;;;;;;2.92;2.62;;;;;;;17.92;100.00;98531.56;4414133;32;20415;-69
2022/06/25 03:01:37;;;;;;;2.40;2.30;;;;;;;17.93;100.00;98538.59;4421627;32;20122;-68
2022/06/25 03:04:04;;;;;;;4.87;2.47;;;;;;;17.91;100.00;98530.72;4433328;32;20038;-69
2022/06/25 03:06:30;;;;;;;3.33;2.80;;;;;;;18.03;100.00;98548.44;4429744;32;20072;-68
2022/06/25 03:08:56;;;;;;;8.43;2.03;;;;;;;17.94;100.00;98537.50;4420519;32;20051;-68
2022/06/25 03:11:22;;;;;;;3.22;2.42;;;;;;;17.98;100.00;98535.75;4415471;32;20401;-69
2022/06/25 03:13:49;;;;;;;3.78;2.62;;;;;;;17.81;100.00;98514.63;4417533;32;20066;-69
2022/06/25 03:16:15;;;;;;;6.28;2.40;;;;;;;17.99;100.00;98537.34;4411592;32;20049;-68
2022/06/25 03:18:41;;;;;;;2.60;2.40;;;;;;;17.77;100.00;98498.13;4428757;32;20069;-69
2022/06/25 03:21:10;;;;;;;5.68;3.03;;;;;;;17.86;100.00;98502.81;4432407;32;20072;-71
2022/06/25 03:23:36;;;;;;;3.75;2.42;;;;;;;18.20;100.00;98525.94;4431836;32;20452;-69
2022/06/25 03:26:02;;;;;;;7.93;2.70;;;;;;;18.24;100.00;98533.19;4433018;32;20045;-70
2022/06/25 03:28:29;;;;;;;3.50;2.60;;;;;;;18.08;100.00;98497.34;4432805;32;20056;-70
2022/06/25 03:30:56;;;;;;;3.47;2.47;;;;;;;18.19;100.00;98492.47;4432881;32;20097;-68
2022/06/25 03:33:23;;;;;;;3.00;2.35;;;;;;;18.48;100.00;98524.63;4431729;32;20100;-69
2022/06/25 03:35:49;;;;;;;3.60;2.60;;;;;;;18.78;100.00;98530.37;4432531;32;20062;-69
2022/06/25 03:38:15;;;;;;;3.35;1.92;;;;;;;18.61;100.00;98492.13;4432973;32;20064;-69
2022/06/25 03:40:41;;;;;;;2.40;2.20;;;;;;;18.92;100.00;98535.72;4427729;32;20106;-68
2022/06/25 03:43:07;;;;;;;2.45;1.98;;;;;;;18.72;100.00;98485.28;4417934;32;20034;-69
2022/06/25 03:45:34;;;;;;;2.47;2.30;;;;;;;18.91;100.00;98501.41;4428962;32;20041;-69
2022/06/25 03:48:00;;;;;;;2.20;2.10;;;;;;;19.04;100.00;98518.75;4432824;32;20065;-69
2022/06/25 03:50:30;;;;;;;6.90;2.37;;;;;;;19.28;100.00;98547.53;4432868;32;20087;-68
2022/06/25 03:52:56;;;;;;;3.12;2.28;;;;;;;19.37;100.00;98557.31;4432465;32;20041;-68
2022/06/25 03:55:22;;;;;;;3.50;2.30;;;;;;;19.20;100.00;98513.63;4430773;32;20403;-70
2022/06/25 03:57:49;;;;;;;5.20;2.40;;;;;;;19.24;100.00;98520.88;4431940;32;20050;-69
2022/06/25 04:00:15;;;;;;;3.72;2.33;;;;;;;19.26;100.00;98517.81;4432634;32;20076;-69
2022/06/25 04:02:43;;;;;;;8.43;2.22;;;;;;;19.24;100.00;98515.41;4428809;32;20446;-69
2022/06/25 04:05:13;;;;;;;3.45;2.28;;;;;;;19.54;100.00;98551.06;4429952;32;20068;-68
2022/06/25 04:07:40;;;;;;;8.15;2.30;;;;;;;19.62;100.00;98563.13;4414169;32;20038;-69
2022/06/25 04:10:06;;;;;;;2.08;1.98;;;;;;;19.33;100.00;98517.34;4389746;32;20118;-69
2022/06/25 04:12:33;;;;;;;7.45;2.25;;;;;;;19.36;100.00;98516.69;4401152;32;20450;-69
2022/06/25 04:14:59;;;;;;;2.92;2.20;;;;;;;19.54;100.00;98564.72;4407791;32;20065;-70
2022/06/25 04:17:26;;;;;;;2.85;2.65;;;;;;;19.63;100.00;98569.41;4415626;32;20108;-70
2022/06/25 04:19:58;;;;;;;6.37;2.17;;;;;;;19.59;100.00;98559.13;4416981;32;20082;-69
2022/06/25 04:22:23;;;;;;;6.50;2.15;;;;;;;19.40;100.00;98534.03;4416871;32;20029;-69
2022/06/25 04:24:57;;;;;;;3.67;2.20;;;;;;;19.61;100.00;98572.44;4426034;32;20045;-69
2022/06/25 04:30:08;;;;;;;3.22;2.03;;;;;;;19.65;100.00;98575.34;4429832;32;20400;-69
2022/06/25 04:32:35;;;;;;;4.62;2.65;;;;;;;19.71;100.00;98576.78;4416545;32;20367;-68
2022/06/25 04:35:02;;;;;;;6.93;2.05;;;;;;;19.77;100.00;98575.53;4426941;32;20052;-69
2022/06/25 04:37:29;;;;;;;5.30;2.22;;;;;;;19.80;100.00;98579.53;4430212;32;20397;-70
2022/06/25 04:39:56;;;;;;;6.95;2.30;;;;;;;19.81;100.00;98584.69;4429618;32;20396;-70
2022/06/25 04:42:22;;;;;;;6.30;2.17;;;;;;;19.87;100.00;98588.06;4431497;32;20056;-69
2022/06/25 04:44:49;;;;;;;5.10;1.95;;;;;;;19.95;100.00;98588.03;4430312;32;20455;-71
2022/06/25 04:47:15;;;;;;;2.08;1.90;;;;;;;19.81;100.00;98549.16;4414966;32;20085;-70
2022/06/25 04:49:42;;;;;;;3.55;1.95;;;;;;;20.10;100.00;98588.66;4403051;32;20064;-71
2022/06/25 04:52:08;;;;;;;3.83;2.83;;;;;;;19.89;100.00;98545.63;4415214;32;20363;-69
2022/06/25 04:54:34;;;;;;;3.12;2.42;;;;;;;20.21;100.00;98587.19;4402242;32;20122;-69
2022/06/25 04:57:05;;;;;;;8.75;2.00;;;;;;;20.39;100.00;98582.53;4427988;32;20075;-74
2022/06/25 04:59:33;;;;;;;10.38;2.37;;;;;;;20.49;100.00;98584.88;4417140;32;20200;-70
2022/06/25 05:02:00;;;;;;;6.28;3.58;;;;;;;20.43;100.00;98591.66;4419359;32;20046;-71
2022/06/25 05:04:27;;;;;;;6.53;2.35;;;;;;;20.36;100.00;98549.53;4415716;32;20091;-69
2022/06/25 05:06:54;;;;;;;2.08;1.85;;;;;;;20.37;100.00;98551.16;4416225;32;20113;-70
2022/06/25 05:09:19;;;;;;;2.28;2.17;;;;;;;20.73;100.00;98594.50;4413802;32;20059;-71
2022/06/25 05:11:46;;;;;;;4.40;2.40;;;;;;;20.86;100.00;98598.16;4414260;32;20068;-69
2022/06/25 05:14:12;;;;;;;6.25;2.95;;;;;;;20.63;100.00;98560.06;4415734;32;20052;-70
2022/06/25 05:16:38;;;;;;;2.80;2.00;;;;;;;20.72;100.00;98556.53;4416011;32;20372;-70
2022/06/25 05:19:04;;;;;;;3.92;2.10;;;;;;;20.77;100.00;98548.94;4416390;32;20048;-70
2022/06/25 05:21:30;;;;;;;3.15;2.12;;;;;;;20.87;100.00;98561.47;4422669;32;20037;-71
2022/06/25 05:23:57;;;;;;;4.32;2.05;;;;;;;21.12;100.00;98595.28;4426017;32;20065;-70
2022/06/25 05:26:24;;;;;;;6.05;2.70;;;;;;;21.20;100.00;98590.87;4414349;32;20043;-70
2022/06/25 05:28:50;;;;;;;7.18;2.00;;;;;;;21.31;100.00;98597.59;4413671;32;20156;-70
2022/06/25 05:31:16;;;;;;;2.17;2.00;;;;;;;21.42;100.00;98593.31;4417379;32;20041;-72
2022/06/25 05:33:42;;;;;;;2.00;1.90;;;;;;;21.41;100.00;98602.69;4399161;32;20121;-70
2022/06/25 05:36:08;;;;;;;7.30;2.00;;;;;;;21.56;100.00;98592.31;4415056;32;20186;-68
2022/06/25 05:38:34;;;;;;;5.68;2.53;;;;;;;21.50;100.00;98582.69;4415370;32;20193;-68
2022/06/25 05:41:00;;;;;;;3.40;1.98;;;;;;;21.46;100.00;98593.47;4413820;32;20417;-69
2022/06/25 05:43:26;;;;;;;2.62;2.08;;;;;;;21.67;100.00;98598.19;4413087;32;20087;-73
2022/06/25 05:45:52;;;;;;;5.93;2.40;;;;;;;21.71;100.00;98597.16;4418668;32;20312;-69
2022/06/25 05:48:18;;;;;;;2.00;1.90;;;;;;;21.82;100.00;98602.28;4430535;32;20087;-68
2022/06/25 05:50:43;;;;;;;6.20;2.50;;;;;;;21.59;100.00;98558.78;4424947;32;20073;-68
2022/06/25 05:53:09;;;;;;;2.25;2.10;;;;;;;21.73;100.00;98575.75;4413317;32;20050;-67
2022/06/25 05:55:35;;;;;;;4.93;2.40;;;;;;;21.97;100.00;98604.41;4412460;32;20100;-71
2022/06/25 05:58:01;;;;;;;10.05;2.08;;;;;;;21.86;100.00;98567.56;4413265;32;20060;-68
2022/06/25 06:00:27;;;;;;;4.50;2.40;;;;;;;22.07;100.00;98598.50;4414379;32;20086;-71
2022/06/25 06:02:53;;;;;;;1.80;1.70;;;;;;;22.06;100.00;98588.66;4414948;32;20090;-69
2022/06/25 06:05:19;;;;;;;2.10;2.00;;;;;;;22.23;100.00;98598.66;4418062;32;20042;-69
2022/06/25 06:07:45;;;;;;;2.12;2.03;;;;;;;22.21;100.00;98605.63;4412142;32;20211;-69
2022/06/25 06:10:11;;;;;;;2.10;1.67;;;;;;;22.03;100.00;98561.91;4414459;32;20057;-69
2022/06/25 06:12:37;;;;;;;14.10;2.25;;;;;;;22.19;100.00;98564.03;4430619;32;20068;-70
2022/06/25 06:15:03;;;;;;;7.20;1.60;;;;;;;22.53;100.00;98606.78;4431276;32;20064;-68
2022/06/25 06:17:30;;;;;;;1.67;1.58;;;;;;;22.54;100.00;98602.09;4416301;32;20114;-69
2022/06/25 06:19:55;;;;;;;7.37;2.05;;;;;;;22.66;100.00;98604.88;4422150;32;20149;-72
2022/06/25 06:22:21;;;;;;;2.40;2.30;;;;;;;22.46;100.00;98577.16;4418019;32;20038;-69
2022/06/25 06:24:47;;;;;;;8.13;2.12;;;;;;;22.82;100.00;98603.06;4418671;32;20059;-69
2022/06/25 06:27:13;;;;;;;4.25;2.25;;;;;;;22.61;100.00;98563.94;4418885;32;20034;-69
2022/06/25 06:29:39;;;;;;;5.68;2.37;;;;;;;22.80;100.00;98608.09;4417662;32;20060;-70
2022/06/25 06:32:06;;;;;;;11.80;2.05;;;;;;;22.74;100.00;98583.97;4418165;32;20078;-70
2022/06/25 06:34:32;;;;;;;4.20;2.20;;;;;;;22.92;100.00;98606.50;4418810;32;20054;-69
2022/06/25 06:36:58;;;;;;;6.10;2.22;;;;;;;22.93;100.00;98597.09;4431875;32;20061;-69
2022/06/25 06:39:23;;;;;;;4.60;2.25;;;;;;;22.98;100.00;98605.13;4433894;32;20057;-68
2022/06/25 06:41:49;;;;;;;5.03;2.00;;;;;;;23.04;100.00;98603.75;4417246;32;20075;-68
2022/06/25 06:44:16;;;;;;;3.20;2.00;;;;;;;22.85;100.00;98574.94;4404584;32;20116;-69
2022/06/25 06:46:42;;;;;;;1.90;1.80;;;;;;;22.94;100.00;98576.75;4401175;32;20121;-71
2022/06/25 06:49:14;;;;;;;4.55;2.00;;;;;;;23.15;100.00;98609.59;4405034;32;20042;-69
2022/06/25 06:51:40;;;;;;;2.28;2.08;;;;;;;23.18;100.00;98607.00;4402509;32;20064;-69
2022/06/25 06:54:06;;;;;;;3.58;2.10;;;;;;;22.96;100.00;98563.47;4412690;32;20042;-69
2022/06/25 06:56:32;;;;;;;3.12;2.72;;;;;;;23.05;100.00;98569.66;4417860;32;20038;-70
2022/06/25 06:58:59;;;;;;;2.10;1.90;;;;;;;23.42;100.00;98608.09;4416086;32;20083;-70
2022/06/25 07:01:25;;;;;;;3.17;2.80;;;;;;;23.19;100.00;98570.13;4408791;32;20918;-69
2022/06/25 07:03:51;;;;;;;5.07;2.53;;;;;;;23.17;100.00;98569.69;4419272;32;20082;-72
2022/06/25 07:06:17;;;;;;;6.80;2.03;;;;;;;23.40;100.00;98602.16;4425701;32;20171;-70
2022/06/25 07:08:43;;;;;;;2.17;1.98;;;;;;;23.30;100.00;98583.41;4415956;32;20159;-72
2022/06/25 07:11:28;;;;;;;4.87;2.40;;;;;;;23.42;100.00;98577.88;4416099;32;20385;-72
2022/06/25 07:13:56;;;;;;;9.80;2.65;;;;;;;23.65;100.00;98621.34;4417599;32;20089;-73
2022/06/25 07:16:22;;;;;;;2.15;2.05;;;;;;;23.86;100.00;98632.22;4417700;32;20035;-72
2022/06/25 07:18:48;;;;;;;9.30;2.15;;;;;;;23.86;100.00;98626.72;4417760;32;20064;-71
2022/06/25 07:21:14;;;;;;;11.57;2.10;;;;;;;23.82;100.00;98625.75;4401871;32;20131;-72
2022/06/25 07:23:40;;;;;;;4.68;2.08;;;;;;;23.89;100.00;98635.06;4415980;32;20054;-73
2022/06/25 07:26:06;;;;;;;2.58;2.17;;;;;;;23.97;100.00;98638.03;4418591;32;20129;-72
2022/06/25 07:28:32;;;;;;;4.03;1.85;;;;;;;23.92;100.00;98642.59;4414473;32;20046;-72
2022/06/25 07:30:58;;;;;;;14.60;3.42;;;;;;;24.01;100.00;98645.19;4412719;32;20052;-72
2022/06/25 07:33:23;;;;;;;8.60;3.47;;;;;;;24.23;100.00;98635.63;4417679;32;20079;-71
2022/06/25 07:35:50;;;;;;;2.78;1.90;;;;;;;24.30;100.00;98635.81;4417979;32;20069;-72
2022/06/25 07:38:15;;;;;;;2.00;1.90;;;;;;;24.30;100.00;98638.56;4416312;32;20046;-72
2022/06/25 07:40:41;;;;;;;8.45;2.15;;;;;;;24.13;100.00;98608.63;4416616;32;20431;-73
2022/06/25 07:43:08;;;;;;;2.00;1.87;;;;;;;24.14;100.00;98636.91;4416565;32;20044;-72
2022/06/25 07:45:33;;;;;;;2.42;1.52;;;;;;;24.36;100.00;98639.09;4415608;32;20470;-72
2022/06/25 07:47:59;;;;;;;7.70;2.25;;;;;;;24.55;100.00;98635.69;4416858;32;20054;-72
2022/06/25 07:53:10;;;;;;;9.63;2.15;;;;;;;24.40;100.00;98641.97;4432444;32;20030;-72
2022/06/25 07:55:36;;;;;;;3.40;1.90;;;;;;;24.15;100.00;98627.53;4425301;32;20405;-72
2022/06/25 07:58:02;;;;;;;2.50;2.30;;;;;;;24.28;100.00;98640.88;4416337;32;20061;-72
2022/06/25 08:00:27;;;;;;;3.55;2.35;;;;;;;24.32;100.00;98627.22;4418445;32;20038;-72
2022/06/25 08:02:54;;;;;;;4.43;3.17;;;;;;;24.09;100.00;98596.72;4415107;32;20088;-72
2022/06/25 08:05:19;;;;;;;4.93;2.70;;;;;;;24.53;100.00;98638.00;4415413;32;20039;-72
2022/06/25 08:07:52;;;;;;;6.62;2.58;;;;;;;24.52;100.00;98641.91;4416178;32;20427;-72
2022/06/25 08:10:18;;;;;;;4.22;3.28;;;;;;;24.46;100.00;98643.34;4416955;32;20084;-72
2022/06/25 08:12:44;;;;;;;4.93;2.20;;;;;;;24.39;100.00;98599.09;4416228;32;20038;-73
2022/06/25 08:15:11;;;;;;;3.70;3.37;;;;;;;24.71;100.00;98645.97;4416347;32;20076;-72
2022/06/25 08:17:37;;;;;;;4.03;2.92;;;;;;;24.79;100.00;98656.78;4418218;32;20146;-72
2022/06/25 08:20:03;;;;;;;5.10;3.00;;;;;;;24.55;100.00;98618.38;4414982;32;20387;-72
2022/06/25 08:22:29;;;;;;;6.50;2.50;;;;;;;24.87;100.00;98640.47;4420005;32;20192;-71
2022/06/25 08:24:56;;;;;;;3.20;2.83;;;;;;;24.84;100.00;98622.69;4423349;32;20098;-71
2022/06/25 08:27:22;;;;;;;7.45;2.60;;;;;;;25.04;100.00;98645.63;4417971;32;20061;-72
2022/06/25 08:29:49;;;;;;;7.70;2.58;;;;;;;24.99;100.00;98641.19;4416268;32;20376;-72
2022/06/25 08:32:15;;;;;;;9.00;2.83;;;;;;;25.00;100.00;98650.22;4413853;32;20439;-71
2022/06/25 08:34:41;;;;;;;2.72;2.12;;;;;;;24.99;100.00;98649.44;4416235;32;20130;-72
2022/06/25 08:37:06;;;;;;;2.65;2.45;;;;;;;24.86;100.00;98623.16;4415282;32;20060;-71
2022/06/25 08:39:33;;;;;;;2.80;2.40;;;;;;;25.14;100.00;98655.31;4416165;32;20061;-73
2022/06/25 08:42:01;;;;;;;9.35;3.00;;;;;;;25.10;100.00;98644.19;4427395;32;20065;-72
2022/06/25 08:44:29;;;;;;;11.77;2.25;;;;;;;25.00;100.00;98629.03;4416660;32;20099;-72
2022/06/25 08:47:00;;;;;;;4.68;2.80;;;;;;;25.40;100.00;98662.22;4414889;32;20096;-71
2022/06/25 08:49:26;;;;;;;6.07;2.30;;;;;;;25.25;100.00;98637.06;4415333;32;20098;-72
2022/06/25 08:51:57;;;;;;;3.97;2.50;;;;;;;25.11;100.00;98650.50;4414659;32;20038;-73
2022/06/25 08:54:24;;;;;;;;;;;;;;;25.28;100.00;98661.19;4416693;32;20088;-72
2022/06/25 08:56:50;;;;;;;4.28;2.90;;;;;;;25.48;100.00;98653.78;4415377;32;19941;-72
2022/06/25 08:59:16;;;;;;;7.50;2.12;;;;;;;25.31;100.00;98619.16;4415675;32;20058;-72
2022/06/25 09:01:44;;;;;;;3.37;2.17;;;;;;;25.61;100.00;98657.22;4414688;32;20068;-71
2022/06/25 09:04:10;;;;;;;8.60;2.37;;;;;;;25.67;100.00;98644.78;4414310;32;20034;-72
2022/06/25 09:06:35;;;;;;;108.93;9.73;;;;;;;25.68;100.00;98651.06;4412885;32;20184;-72
2022/06/25 09:09:13;;;;;;;24.27;4.35;;;;;;;25.76;100.00;98657.56;4415952;32;20042;-73
2022/06/25 09:11:55;;;;;;;35.20;8.13;;;;;;;25.82;100.00;98650.59;4415710;32;20068;-73
2022/06/25 09:14:29;;;;;;;21.52;5.07;;;;;;;25.69;100.00;98625.91;4427041;32;20057;-72
2022/06/25 09:17:06;;;;;;;86.00;18.42;;;;;;;26.02;100.00;98665.22;4425132;32;20471;-71
2022/06/25 09:19:37;;;;;;;24.87;6.07;;;;;;;25.90;100.00;98664.16;4429819;32;20466;-74
2022/06/25 09:22:07;;;;;;;9.13;3.37;;;;;;;25.68;100.00;98638.06;4417262;32;20775;-72
2022/06/25 09:24:44;;;;;;;35.72;7.35;;;;;;;26.00;100.00;98668.34;4415060;32;20090;-71
2022/06/25 09:27:10;;;;;;;45.33;10.82;;;;;;;25.74;100.00;98661.44;4414584;32;20038;-72
2022/06/25 09:29:38;;;;;;;42.17;9.15;;;;;;;25.78;100.00;98657.97;4410708;32;20054;-73
2022/06/25 09:32:04;;;;;;;45.25;9.05;;;;;;;25.82;100.00;98650.59;4411314;32;20051;-73
2022/06/25 09:34:35;;;;;;;255.23;49.90;;;;;;;25.64;100.00;98631.69;4412641;32;20109;-74
2022/06/25 09:37:23;;;;;;;8.90;2.90;;;;;;;25.78;100.00;98625.69;4412447;32;20054;-74
2022/06/25 09:39:50;;;;;;;7.82;2.78;;;;;;;25.95;100.00;98660.31;4412218;32;20049;-73
2022/06/25 09:42:20;;;;;;;5.28;2.60;;;;;;;25.93;100.00;98641.38;4410337;32;20062;-74
2022/06/25 09:44:48;;;;;;;93.32;17.15;;;;;;;26.07;100.00;98654.72;4414608;32;20058;-73
2022/06/25 09:47:14;;;;;;;6.45;2.40;;;;;;;26.14;100.00;98656.03;4412701;32;20473;-73
2022/06/25 09:49:40;;;;;;;5.50;2.92;;;;;;;26.22;100.00;98664.06;4415859;32;20074;-73
2022/06/25 09:52:06;;;;;;;59.22;4.03;;;;;;;26.29;100.00;98663.41;4415861;32;20116;-73
2022/06/25 09:54:33;;;;;;;2.42;2.22;;;;;;;26.50;100.00;98659.47;4415111;32;20425;-73
2022/06/25 09:57:02;;;;;;;18.20;2.10;;;;;;;26.34;100.00;98627.22;4415337;32;20050;-75
2022/06/25 09:59:30;;;;;;;2.62;2.45;;;;;;;26.66;100.00;98671.22;4412136;32;20050;-72
2022/06/25 10:01:59;;;;;;;4.37;2.67;;;;;;;26.61;100.00;98630.09;4415751;32;20111;-73
2022/06/25 10:04:28;;;;;;;6.37;2.20;;;;;;;26.56;100.00;98630.41;4414651;32;20086;-73
2022/06/25 10:06:55;;;;;;;7.85;2.72;;;;;;;26.79;100.00;98635.97;4414350;32;20055;-72
2022/06/25 10:09:30;;;;;;;6.72;2.70;;;;;;;26.91;100.00;98648.78;4412833;32;20116;-73
2022/06/25 10:11:56;;;;;;;3.40;2.28;;;;;;;26.86;100.00;98624.25;4415396;32;20114;-73
2022/06/25 10:14:22;;;;;;;7.43;2.03;;;;;;;27.09;100.00;98655.44;4414366;32;20507;-74
2022/06/25 10:16:50;;;;;;;6.70;2.20;;;;;;;27.05;95.39;98654.56;4415480;32;20482;-72
2022/06/25 10:19:18;;;;;;;1.98;1.87;;;;;;;27.07;95.29;98632.88;4415142;32;20066;-75
2022/06/25 10:21:44;;;;;;;2.30;2.10;;;;;;;27.26;96.00;98650.56;4412855;32;20034;-72
2022/06/25 10:24:10;;;;;;;4.45;2.03;;;;;;;27.27;96.76;98652.94;4414382;32;20387;-73
2022/06/25 10:26:37;;;;;;;6.37;2.40;;;;;;;27.33;100.00;98653.44;4415336;32;20065;-73
2022/06/25 10:29:21;;;;;;;4.72;2.72;;;;;;;27.28;96.62;98618.59;4414524;32;20039;-73
2022/06/25 10:31:48;;;;;;;4.18;2.53;;;;;;;27.48;92.71;98648.94;4415752;32;20093;-73
2022/06/25 10:34:14;;;;;;;4.10;2.25;;;;;;;27.79;95.31;98653.31;4401104;32;20207;-73
2022/06/25 10:36:42;;;;;;;6.90;2.42;;;;;;;27.33;92.00;98625.81;4415302;32;20061;-73
2022/06/25 10:39:27;;;;;;;3.85;1.98;;;;;;;27.52;87.58;98622.94;4413591;32;20057;-75
2022/06/25 10:45:19;;;;;;;4.45;2.00;;;;;;;27.85;88.06;98654.59;4414335;32;20038;-72
2022/06/25 10:47:48;;;;;;;7.97;2.35;;;;;;;28.05;78.26;98654.47;4391173;32;20475;-72
2022/06/25 10:50:20;;;;;;;10.73;2.50;;;;;;;27.75;83.37;98657.22;4412743;32;20058;-74
2022/06/25 10:53:09;;;;;;;7.85;2.45;;;;;;;28.05;84.58;98651.69;4401206;32;20073;-73
2022/06/25 10:55:37;;;;;;;2.33;2.12;;;;;;;28.55;82.35;98655.06;4409337;32;20100;-72
2022/06/25 10:58:23;;;;;;;29.40;4.55;;;;;;;28.26;77.80;98642.88;4414312;32;20381;-75
2022/06/25 11:00:58;;;;;;;2.55;2.12;;;;;;;27.82;77.40;98652.56;4413940;32;20038;-73
2022/06/25 11:03:27;;;;;;;2.75;1.85;;;;;;;27.39;80.98;98620.78;4401662;32;20562;-72
2022/06/25 11:05:55;;;;;;;4.20;2.35;;;;;;;27.41;78.56;98638.56;4415482;32;20147;-73
2022/06/25 11:08:23;;;;;;;11.35;3.15;;;;;;;28.17;75.35;98651.47;4417328;32;20397;-72
2022/06/25 11:10:49;;;;;;;2.58;2.37;;;;;;;28.72;75.89;98647.31;4417386;32;20380;-71
2022/06/25 11:13:16;;;;;;;8.55;2.30;;;;;;;29.02;67.91;98654.72;4417682;32;20038;-73
2022/06/25 11:15:44;;;;;;;3.75;2.25;;;;;;;29.35;72.56;98651.84;4418001;32;20080;-72
2022/06/25 11:18:14;;;;;;;2.25;2.00;;;;;;;29.83;69.46;98642.66;4415571;32;20458;-73
2022/06/25 11:20:42;;;;;;;6.63;2.40;;;;;;;29.09;64.43;98644.50;4417596;32;20092;-73
2022/06/25 11:23:12;;;;;;;2.03;1.92;;;;;;;28.82;70.99;98646.66;4417910;32;20035;-72
2022/06/25 11:28:52;;;;;;;2.40;2.25;;;;;;;28.95;59.50;98650.72;4417432;32;20392;-73
2022/06/25 11:31:24;;;;;;;4.10;2.30;;;;;;;28.96;58.04;98624.62;4416464;32;20356;-75
2022/06/25 11:33:52;;;;;;;4.57;2.83;;;;;;;29.96;59.32;98618.12;4416194;32;20360;-73
2022/06/25 11:36:19;;;;;;;7.62;2.83;;;;;;;30.76;52.95;98660.84;4417150;32;20054;-73
2022/06/25 11:38:54;;;;;;;4.87;2.87;;;;;;;30.20;56.11;98655.50;4417629;32;20074;-72
2022/06/25 11:41:26;;;;;;;4.40;2.20;;;;;;;30.66;53.36;98648.53;4403429;32;20054;-72
2022/06/25 11:43:54;;;;;;;2.25;2.15;;;;;;;30.53;47.88;98650.88;4416141;32;20087;-73
2022/06/25 11:46:21;;;;;;;4.53;1.92;;;;;;;30.20;49.48;98626.94;4417538;32;20038;-73